createdAt,value
2018-08-03T00:01:24.424Z,22.46
2018-08-03T00:03:51.595Z,22.22
2018-08-03T00:06:18.875Z,22.32
2018-08-03T00:08:46.016Z,22.29
2018-08-03T00:11:14.696Z,22.31
2018-08-03T00:13:41.894Z,22.25
2018-08-03T00:16:09.076Z,22.22
2018-08-03T00:18:36.271Z,22.16
2018-08-03T00:21:03.432Z,21.94
2018-08-03T00:23:30.574Z,22.16
2018-08-03T00:25:57.683Z,22.26
2018-08-03T00:28:24.860Z,22.34
2018-08-03T00:30:52.004Z,22.38
2018-08-03T00:33:19.254Z,22.37
2018-08-03T00:35:46.397Z,22.16
2018-08-03T00:38:13.556Z,22.08
2018-08-03T00:40:40.676Z,21.97
2018-08-03T00:43:07.900Z,22.17
2018-08-03T00:45:35.021Z,22.23
2018-08-03T00:48:02.203Z,21.58
2018-08-03T00:50:29.324Z,21.11
2018-08-03T00:52:56.485Z,21.14
2018-08-03T00:55:23.559Z,21.24
2018-08-03T00:57:50.714Z,21.45
2018-08-03T01:00:18.001Z,21.01
2018-08-03T01:02:45.185Z,21.08
2018-08-03T01:05:12.318Z,21.02
2018-08-03T01:07:39.482Z,21.24
2018-08-03T01:10:06.656Z,21.59
2018-08-03T01:12:33.829Z,21.66
2018-08-03T01:15:01.013Z,21.81
2018-08-03T01:17:28.244Z,21.66
2018-08-03T01:19:55.397Z,21.79
2018-08-03T01:22:22.587Z,21.70
2018-08-03T01:24:49.732Z,21.45
2018-08-03T01:27:16.880Z,21.43
2018-08-03T01:29:44.055Z,20.98
2018-08-03T01:32:11.219Z,20.89
2018-08-03T01:34:38.345Z,21.26
2018-08-03T01:37:05.563Z,21.35
2018-08-03T01:39:32.699Z,21.49
2018-08-03T01:41:59.837Z,21.61
2018-08-03T01:44:27.019Z,21.56
2018-08-03T01:46:54.176Z,21.21
2018-08-03T01:49:21.302Z,21.25
2018-08-03T01:51:48.553Z,21.36
2018-08-03T01:54:15.867Z,21.31
2018-08-03T01:56:42.996Z,21.32
2018-08-03T01:59:10.143Z,21.23
2018-08-03T02:01:37.284Z,21.21
2018-08-03T02:04:04.436Z,21.29
2018-08-03T02:06:31.641Z,21.27
2018-08-03T02:08:58.780Z,21.30
2018-08-03T02:11:26.048Z,20.71
2018-08-03T02:13:53.207Z,20.92
2018-08-03T02:16:20.447Z,20.61
2018-08-03T02:18:47.632Z,20.35
2018-08-03T02:21:14.738Z,20.90
2018-08-03T02:23:41.888Z,20.77
2018-08-03T02:26:09.064Z,20.84
2018-08-03T02:28:36.183Z,20.89
2018-08-03T02:31:03.348Z,20.87
2018-08-03T02:33:30.525Z,20.92
2018-08-03T02:35:57.645Z,20.80
2018-08-03T02:38:24.761Z,20.71
2018-08-03T02:40:51.923Z,20.63
2018-08-03T02:43:19.039Z,20.55
2018-08-03T02:45:46.156Z,20.58
2018-08-03T02:48:13.292Z,20.68
2018-08-03T02:50:40.453Z,20.86
2018-08-03T02:53:07.601Z,20.92
2018-08-03T02:55:34.680Z,21.00
2018-08-03T02:58:01.769Z,20.95
2018-08-03T03:00:28.948Z,20.90
2018-08-03T03:02:56.104Z,20.76
2018-08-03T03:05:23.294Z,20.35
2018-08-03T03:07:50.504Z,19.97
2018-08-03T03:10:17.745Z,19.94
2018-08-03T03:12:47.520Z,19.59
2018-08-03T03:15:14.679Z,19.62
2018-08-03T03:17:41.831Z,20.02
2018-08-03T03:20:08.991Z,20.22
2018-08-03T03:22:36.152Z,20.37
2018-08-03T03:25:04.373Z,20.54
2018-08-03T03:27:31.498Z,20.41
2018-08-03T03:29:58.612Z,19.82
2018-08-03T03:32:25.753Z,19.40
2018-08-03T03:34:52.868Z,19.73
2018-08-03T03:37:19.991Z,20.00
2018-08-03T03:39:47.188Z,20.06
2018-08-03T03:42:14.377Z,20.23
2018-08-03T03:47:15.517Z,19.82
2018-08-03T03:49:42.628Z,19.49
2018-08-03T03:52:09.864Z,19.67
2018-08-03T03:54:37.004Z,19.83
2018-08-03T03:57:04.212Z,19.75
2018-08-03T03:59:31.387Z,19.56
2018-08-03T04:01:58.547Z,19.69
2018-08-03T04:04:25.660Z,19.95
2018-08-03T04:06:52.800Z,20.15
2018-08-03T04:09:19.953Z,20.02
2018-08-03T04:11:47.087Z,20.20
2018-08-03T04:14:14.181Z,20.03
2018-08-03T04:16:41.411Z,19.98
2018-08-03T04:19:08.561Z,20.08
2018-08-03T04:21:35.720Z,19.83
2018-08-03T04:24:02.927Z,19.56
2018-08-03T04:26:30.327Z,19.32
2018-08-03T04:28:57.792Z,19.40
2018-08-03T04:31:25.027Z,19.56
2018-08-03T04:33:52.157Z,20.04
2018-08-03T04:36:19.335Z,20.08
2018-08-03T04:38:46.469Z,20.26
2018-08-03T04:41:13.588Z,19.94
2018-08-03T04:43:40.672Z,19.75
2018-08-03T04:46:07.842Z,19.84
2018-08-03T04:48:35.016Z,20.26
2018-08-03T04:51:02.145Z,20.43
2018-08-03T04:53:29.316Z,20.56
2018-08-03T04:55:56.464Z,20.58
2018-08-03T04:58:23.605Z,20.55
2018-08-03T05:00:50.732Z,20.64
2018-08-03T05:03:18.038Z,20.73
2018-08-03T05:05:45.403Z,20.55
2018-08-03T05:08:12.603Z,20.51
2018-08-03T05:10:39.860Z,20.63
2018-08-03T05:13:07.200Z,20.76
2018-08-03T05:15:34.553Z,20.64
2018-08-03T05:18:01.672Z,20.94
2018-08-03T05:20:28.929Z,21.12
2018-08-03T05:22:56.088Z,21.33
2018-08-03T05:25:23.268Z,21.49
2018-08-03T05:27:50.420Z,21.73
2018-08-03T05:30:17.543Z,21.79
2018-08-03T05:32:44.705Z,21.97
2018-08-03T05:35:11.883Z,22.00
2018-08-03T05:37:39.051Z,22.03
2018-08-03T05:40:06.252Z,22.28
2018-08-03T05:42:33.444Z,22.46
2018-08-03T05:45:00.584Z,22.43
2018-08-03T05:47:27.684Z,22.57
2018-08-03T05:49:54.824Z,22.65
2018-08-03T05:52:21.943Z,22.90
2018-08-03T05:54:49.079Z,23.04
2018-08-03T05:57:16.342Z,23.07
2018-08-03T05:59:43.500Z,23.21
2018-08-03T06:02:10.703Z,23.40
2018-08-03T06:04:37.884Z,23.58
2018-08-03T06:07:05.076Z,23.58
2018-08-03T06:09:32.336Z,23.84
2018-08-03T06:11:59.448Z,23.87
2018-08-03T06:14:26.623Z,24.09
2018-08-03T06:16:53.770Z,24.20
2018-08-03T06:19:20.889Z,24.46
2018-08-03T06:21:48.157Z,24.67
2018-08-03T06:24:15.286Z,24.77
2018-08-03T06:26:42.428Z,24.55
2018-08-03T06:29:09.536Z,24.58
2018-08-03T06:31:36.651Z,24.66
2018-08-03T06:34:03.845Z,24.81
2018-08-03T06:36:31.008Z,25.24
2018-08-03T06:38:58.133Z,25.58
2018-08-03T06:41:25.292Z,25.79
2018-08-03T06:43:52.458Z,26.06
2018-08-03T06:46:19.628Z,26.21
2018-08-03T06:48:46.798Z,26.37
2018-08-03T06:51:13.933Z,26.49
2018-08-03T06:53:41.130Z,26.59
2018-08-03T06:56:08.268Z,26.68
2018-08-03T07:01:09.251Z,26.93
2018-08-03T07:03:36.432Z,27.04
2018-08-03T07:06:03.567Z,27.25
2018-08-03T07:08:30.701Z,26.79
2018-08-03T07:10:57.851Z,26.66
2018-08-03T07:13:24.993Z,26.94
2018-08-03T07:15:52.167Z,27.03
2018-08-03T07:18:19.321Z,27.35
2018-08-03T07:20:46.488Z,27.67
2018-08-03T07:23:13.673Z,27.84
2018-08-03T07:25:40.803Z,28.15
2018-08-03T07:28:07.973Z,28.06
2018-08-03T07:30:35.189Z,27.83
2018-08-03T07:33:02.383Z,28.01
2018-08-03T07:35:29.533Z,28.24
2018-08-03T07:37:56.712Z,28.36
2018-08-03T07:40:23.840Z,28.43
2018-08-03T07:42:51.009Z,28.56
2018-08-03T07:45:18.168Z,28.72
2018-08-03T07:47:45.309Z,29.02
2018-08-03T07:50:12.448Z,28.94
2018-08-03T07:52:39.584Z,28.81
2018-08-03T07:55:06.772Z,28.80
2018-08-03T07:57:33.923Z,28.85
2018-08-03T08:00:01.441Z,29.23
2018-08-03T08:02:28.644Z,29.23
2018-08-03T08:04:55.767Z,29.38
2018-08-03T08:07:22.901Z,29.28
2018-08-03T08:09:50.037Z,29.37
2018-08-03T08:12:17.178Z,29.49
2018-08-03T08:14:44.370Z,29.73
2018-08-03T08:17:11.557Z,29.76
2018-08-03T08:19:38.708Z,30.11
2018-08-03T08:22:05.973Z,29.97
2018-08-03T08:24:33.091Z,29.82
2018-08-03T08:27:00.276Z,29.98
2018-08-03T08:29:27.392Z,29.94
2018-08-03T08:31:54.599Z,29.86
2018-08-03T08:34:21.764Z,30.30
2018-08-03T08:36:48.994Z,30.58
2018-08-03T08:39:16.196Z,30.16
2018-08-03T08:41:43.328Z,30.07
2018-08-03T08:44:11.299Z,30.08
2018-08-03T08:46:38.431Z,29.92
2018-08-03T08:49:05.634Z,30.58
2018-08-03T08:51:32.814Z,30.78
2018-08-03T08:54:00.049Z,30.91
2018-08-03T08:56:27.253Z,30.56
2018-08-03T08:58:54.341Z,30.85
2018-08-03T09:01:21.488Z,30.80
2018-08-03T09:03:48.629Z,30.35
2018-08-03T09:06:15.783Z,30.17
2018-08-03T09:08:42.921Z,30.55
2018-08-03T09:11:10.097Z,30.74
2018-08-03T09:13:37.229Z,30.61
2018-08-03T09:16:04.348Z,31.07
2018-08-03T09:18:31.581Z,31.41
2018-08-03T09:20:58.684Z,31.34
2018-08-03T09:23:25.858Z,31.18
2018-08-03T09:25:53.012Z,31.43
2018-08-03T09:28:20.352Z,31.37
2018-08-03T09:30:47.544Z,31.14
2018-08-03T09:33:14.796Z,31.23
2018-08-03T09:35:41.868Z,31.42
2018-08-03T09:38:09.019Z,31.29
2018-08-03T09:40:36.199Z,31.64
2018-08-03T09:43:03.495Z,31.72
2018-08-03T09:45:30.527Z,31.53
2018-08-03T09:47:57.705Z,31.07
2018-08-03T09:50:24.893Z,31.37
2018-08-03T09:52:52.212Z,31.75
2018-08-03T09:55:19.441Z,31.89
2018-08-03T09:57:46.511Z,31.52
2018-08-03T10:00:15.632Z,31.91
2018-08-03T10:02:42.936Z,32.01
2018-08-03T10:05:10.100Z,31.95
2018-08-03T10:07:37.275Z,32.20
2018-08-03T10:10:05.217Z,32.34
2018-08-03T10:12:32.329Z,31.82
2018-08-03T10:14:59.452Z,32.22
2018-08-03T10:17:26.583Z,32.42
2018-08-03T10:19:53.696Z,32.37
2018-08-03T10:22:20.813Z,32.42
2018-08-03T10:24:48.005Z,32.58
2018-08-03T10:27:15.161Z,32.44
2018-08-03T10:29:42.366Z,32.67
2018-08-03T10:32:09.528Z,32.96
2018-08-03T10:34:36.685Z,32.57
2018-08-03T10:37:03.812Z,32.34
2018-08-03T10:39:30.940Z,32.50
2018-08-03T10:41:58.068Z,32.65
2018-08-03T10:44:25.210Z,32.88
2018-08-03T10:46:52.353Z,33.20
2018-08-03T10:49:19.548Z,33.23
2018-08-03T10:51:46.697Z,32.86
2018-08-03T10:54:13.843Z,33.34
2018-08-03T10:56:40.977Z,33.68
2018-08-03T10:59:08.176Z,33.83
2018-08-03T11:01:35.381Z,33.62
2018-08-03T11:04:02.457Z,33.93
2018-08-03T11:06:29.575Z,33.66
2018-08-03T11:08:56.701Z,33.71
2018-08-03T11:11:23.852Z,34.25
2018-08-03T11:13:51.055Z,33.41
2018-08-03T11:16:18.225Z,34.27
2018-08-03T11:18:45.375Z,34.60
2018-08-03T11:21:12.492Z,34.01
2018-08-03T11:23:39.630Z,33.96
2018-08-03T11:26:06.776Z,33.83
2018-08-03T11:28:33.919Z,33.75
2018-08-03T11:31:01.137Z,34.16
2018-08-03T11:33:28.293Z,34.22
2018-08-03T11:35:55.443Z,34.26
2018-08-03T11:38:22.590Z,33.30
2018-08-03T11:40:49.806Z,33.04
2018-08-03T11:43:17.060Z,32.23
2018-08-03T11:45:44.243Z,31.82
2018-08-03T11:48:11.405Z,31.64
2018-08-03T11:50:38.556Z,32.20
2018-08-03T11:53:05.768Z,32.42
2018-08-03T11:55:32.955Z,32.28
2018-08-03T11:58:00.073Z,33.08
2018-08-03T12:00:27.264Z,34.16
2018-08-03T12:02:54.508Z,34.23
2018-08-03T12:05:21.736Z,34.25
2018-08-03T12:07:48.939Z,34.60
2018-08-03T12:10:16.112Z,35.49
2018-08-03T12:12:43.247Z,34.81
2018-08-03T12:15:10.376Z,35.33
2018-08-03T12:17:37.514Z,35.39
2018-08-03T12:20:05.113Z,35.39
2018-08-03T12:22:32.253Z,35.84
2018-08-03T12:24:59.393Z,36.01
2018-08-03T12:27:26.652Z,36.02
2018-08-03T12:29:53.784Z,36.60
2018-08-03T12:32:21.003Z,36.01
2018-08-03T12:34:48.102Z,36.24
2018-08-03T12:37:15.272Z,36.20
2018-08-03T12:39:42.461Z,36.62
2018-08-03T12:42:09.615Z,36.97
2018-08-03T12:44:36.813Z,36.65
2018-08-03T12:47:03.950Z,36.44
2018-08-03T12:49:31.112Z,37.22
2018-08-03T12:51:58.477Z,37.27
2018-08-03T12:54:25.622Z,37.27
2018-08-03T12:56:52.740Z,37.15
2018-08-03T12:59:19.932Z,37.08
2018-08-03T13:01:47.133Z,37.37
2018-08-03T13:04:14.295Z,36.66
2018-08-03T13:06:41.387Z,36.42
2018-08-03T13:09:08.533Z,37.46
2018-08-03T13:11:35.680Z,37.25
2018-08-03T13:14:02.927Z,37.52
2018-08-03T13:16:30.081Z,37.02
2018-08-03T13:18:57.340Z,36.83
2018-08-03T13:21:31.021Z,37.23
2018-08-03T13:24:00.261Z,36.65
2018-08-03T13:26:27.552Z,37.23
2018-08-03T13:28:55.205Z,37.42
2018-08-03T13:31:23.357Z,37.14
2018-08-03T13:33:51.510Z,37.83
2018-08-03T13:36:18.811Z,38.13
2018-08-03T13:38:46.680Z,37.79
2018-08-03T13:41:14.311Z,36.27
2018-08-03T13:43:41.490Z,36.35
2018-08-03T13:46:08.652Z,36.29
2018-08-03T13:48:35.868Z,36.07
2018-08-03T13:51:03.561Z,37.07
2018-08-03T13:53:30.776Z,37.81
2018-08-03T13:55:57.964Z,36.89
2018-08-03T13:58:25.256Z,36.42
2018-08-03T14:01:02.740Z,37.10
2018-08-03T14:03:29.965Z,36.49
2018-08-03T14:05:57.113Z,35.30
2018-08-03T14:08:24.276Z,34.12
2018-08-03T14:10:51.543Z,33.45
2018-08-03T14:13:18.677Z,32.95
2018-08-03T14:15:45.903Z,32.66
2018-08-03T14:18:13.077Z,32.55
2018-08-03T14:20:40.232Z,32.34
2018-08-03T14:23:07.401Z,32.32
2018-08-03T14:25:34.615Z,32.17
2018-08-03T14:28:01.746Z,32.35
2018-08-03T14:30:28.957Z,32.32
2018-08-03T14:32:56.135Z,32.23
2018-08-03T14:35:23.321Z,31.98
2018-08-03T14:37:50.449Z,31.92
2018-08-03T14:40:17.657Z,32.17
2018-08-03T14:42:44.848Z,32.33
2018-08-03T14:45:11.962Z,31.99
2018-08-03T14:47:39.102Z,32.17
2018-08-03T14:50:06.266Z,32.21
2018-08-03T14:52:33.496Z,32.34
2018-08-03T14:55:00.691Z,32.13
2018-08-03T14:57:28.252Z,32.01
2018-08-03T14:59:55.443Z,31.96
2018-08-03T15:02:22.604Z,32.16
2018-08-03T15:04:49.792Z,31.92
2018-08-03T15:07:17.122Z,32.05
2018-08-03T15:09:44.305Z,31.94
2018-08-03T15:12:11.426Z,31.99
2018-08-03T15:14:38.586Z,32.24
2018-08-03T15:17:06.081Z,32.19
2018-08-03T15:19:33.255Z,32.09
2018-08-03T15:22:00.439Z,32.05
2018-08-03T15:24:27.619Z,32.03
2018-08-03T15:26:54.829Z,32.01
2018-08-03T15:29:22.000Z,32.02
2018-08-03T15:31:49.329Z,32.00
2018-08-03T15:34:16.481Z,32.20
2018-08-03T15:36:43.655Z,32.35
2018-08-03T15:39:11.161Z,32.28
2018-08-03T15:41:38.492Z,32.00
2018-08-03T15:44:05.660Z,31.90
2018-08-03T15:46:32.862Z,31.92
2018-08-03T15:49:00.114Z,31.87
2018-08-03T15:51:27.246Z,31.87
2018-08-03T15:53:54.384Z,31.80
2018-08-03T15:56:21.508Z,31.76
2018-08-03T15:58:48.755Z,31.75
2018-08-03T16:01:15.832Z,31.75
2018-08-03T16:03:42.962Z,31.63
2018-08-03T16:06:10.104Z,31.79
2018-08-03T16:08:37.308Z,31.87
2018-08-03T16:11:04.428Z,31.95
2018-08-03T16:13:31.615Z,31.85
2018-08-03T16:15:58.789Z,31.72
2018-08-03T16:18:25.908Z,31.85
2018-08-03T16:20:53.057Z,31.62
2018-08-03T16:23:20.252Z,31.53
2018-08-03T16:25:47.464Z,31.45
2018-08-03T16:28:14.580Z,31.44
2018-08-03T16:30:41.744Z,31.51
2018-08-03T16:33:08.833Z,31.53
2018-08-03T16:35:35.953Z,31.55
2018-08-03T16:38:03.175Z,31.53
2018-08-03T16:40:30.330Z,31.57
2018-08-03T16:42:57.496Z,31.32
2018-08-03T16:45:24.673Z,31.32
2018-08-03T16:47:51.816Z,31.39
2018-08-03T16:50:19.501Z,31.62
2018-08-03T16:52:46.676Z,31.80
2018-08-03T16:55:13.837Z,31.76
2018-08-03T16:57:40.988Z,31.67
2018-08-03T17:00:08.226Z,31.64
2018-08-03T17:02:35.388Z,31.70
2018-08-03T17:05:02.816Z,31.78
2018-08-03T17:07:30.001Z,31.80
2018-08-03T17:09:57.179Z,31.98
2018-08-03T17:12:24.305Z,32.00
2018-08-03T17:14:51.426Z,32.05
2018-08-03T17:17:18.588Z,31.73
2018-08-03T17:19:45.756Z,31.67
2018-08-03T17:22:12.969Z,31.91
2018-08-03T17:24:40.128Z,31.88
2018-08-03T17:27:07.329Z,31.74
2018-08-03T17:29:34.470Z,31.50
2018-08-03T17:32:01.729Z,31.51
2018-08-03T17:34:28.870Z,31.41
2018-08-03T17:36:56.032Z,31.34
2018-08-03T17:39:23.240Z,31.32
2018-08-03T17:41:50.452Z,31.22
2018-08-03T17:44:17.647Z,31.20
2018-08-03T17:46:44.805Z,31.20
2018-08-03T17:49:11.946Z,31.21
2018-08-03T17:51:39.201Z,31.00
2018-08-03T17:54:06.380Z,31.06
2018-08-03T17:56:33.544Z,30.99
2018-08-03T17:59:00.746Z,30.73
2018-08-03T18:01:27.909Z,30.75
2018-08-03T18:03:55.064Z,30.51
2018-08-03T18:06:22.260Z,30.36
2018-08-03T18:08:49.448Z,30.37
2018-08-03T18:11:16.620Z,30.28
2018-08-03T18:13:44.668Z,30.13
2018-08-03T18:16:11.792Z,30.15
2018-08-03T18:18:38.906Z,29.79
2018-08-03T18:21:06.067Z,29.85
2018-08-03T18:23:33.209Z,29.61
2018-08-03T18:26:00.372Z,29.69
2018-08-03T18:28:27.577Z,29.39
2018-08-03T18:30:54.728Z,29.38
2018-08-03T18:33:21.882Z,29.42
2018-08-03T18:35:49.101Z,29.52
2018-08-03T18:38:16.716Z,29.42
2018-08-03T18:40:43.939Z,29.51
2018-08-03T18:43:11.086Z,29.12
2018-08-03T18:45:38.280Z,28.86
2018-08-03T18:48:05.497Z,28.82
2018-08-03T18:50:32.712Z,28.68
2018-08-03T18:52:59.813Z,28.44
2018-08-03T18:55:27.001Z,28.53
2018-08-03T18:57:54.152Z,28.04
2018-08-03T19:00:21.317Z,28.06
2018-08-03T19:02:48.449Z,28.09
2018-08-03T19:05:15.615Z,28.06
2018-08-03T19:07:42.782Z,28.11
2018-08-03T19:10:09.921Z,27.98
2018-08-03T19:12:37.080Z,28.01
2018-08-03T19:15:05.305Z,27.90
2018-08-03T19:17:32.442Z,28.02
2018-08-03T19:19:59.627Z,28.07
2018-08-03T19:22:26.836Z,28.23
2018-08-03T19:24:54.046Z,27.97
2018-08-03T19:27:21.155Z,27.71
2018-08-03T19:29:48.345Z,27.35
2018-08-03T19:32:18.786Z,27.45
2018-08-03T19:34:45.909Z,27.67
2018-08-03T19:37:13.049Z,27.66
2018-08-03T19:39:40.217Z,27.70
2018-08-03T19:42:07.366Z,27.38
2018-08-03T19:44:34.492Z,27.43
2018-08-03T19:47:01.684Z,27.51
2018-08-03T19:49:29.569Z,27.49
2018-08-03T19:51:56.776Z,27.21
2018-08-03T19:54:23.881Z,27.44
2018-08-03T19:56:50.997Z,27.55
2018-08-03T19:59:18.181Z,27.25
2018-08-03T20:01:45.330Z,26.95
2018-08-03T20:04:12.482Z,26.86
2018-08-03T20:06:39.627Z,26.35
2018-08-03T20:09:09.579Z,26.59
2018-08-03T20:11:36.763Z,26.53
2018-08-03T20:14:03.963Z,26.57
2018-08-03T20:16:31.111Z,26.72
2018-08-03T20:18:58.225Z,26.40
2018-08-03T20:21:25.381Z,26.40
2018-08-03T20:23:52.541Z,26.13
2018-08-03T20:26:19.763Z,26.40
2018-08-03T20:28:46.872Z,26.33
2018-08-03T20:31:14.061Z,26.22
2018-08-03T20:33:41.228Z,26.41
2018-08-03T20:36:09.005Z,26.54
2018-08-03T20:38:36.193Z,26.43
2018-08-03T20:41:03.351Z,25.69
2018-08-03T20:43:30.531Z,25.54
2018-08-03T20:45:57.744Z,25.44
2018-08-03T20:48:24.926Z,25.70
2018-08-03T20:50:52.023Z,25.92
2018-08-03T20:53:19.167Z,25.97
2018-08-03T20:55:47.232Z,25.84
2018-08-03T20:58:14.389Z,25.54
2018-08-03T21:00:41.558Z,25.00
2018-08-03T21:03:08.711Z,24.70
2018-08-03T21:05:35.883Z,24.98
2018-08-03T21:08:03.113Z,25.05
2018-08-03T21:10:30.341Z,25.29
2018-08-03T21:12:57.518Z,25.38
2018-08-03T21:15:24.690Z,25.66
2018-08-03T21:17:51.887Z,25.71
2018-08-03T21:20:19.009Z,25.75
2018-08-03T21:22:46.178Z,25.64
2018-08-03T21:25:13.354Z,24.91
2018-08-03T21:27:40.528Z,24.58
2018-08-03T21:30:09.229Z,24.22
2018-08-03T21:32:36.393Z,24.23
2018-08-03T21:35:04.220Z,23.80
2018-08-03T21:37:31.440Z,23.97
2018-08-03T21:39:58.583Z,24.47
2018-08-03T21:42:25.760Z,24.78
2018-08-03T21:44:52.939Z,24.79
2018-08-03T21:47:20.139Z,24.84
2018-08-03T21:49:47.310Z,25.13
2018-08-03T21:52:14.508Z,25.17
2018-08-03T21:54:41.663Z,24.93
2018-08-03T21:57:08.804Z,24.50
2018-08-03T21:59:36.054Z,23.78
2018-08-03T22:02:03.277Z,23.61
2018-08-03T22:04:30.451Z,23.59
2018-08-03T22:06:57.606Z,23.99
2018-08-03T22:09:24.815Z,24.11
2018-08-03T22:11:51.980Z,24.28
2018-08-03T22:16:53.364Z,24.10
2018-08-03T22:19:20.525Z,23.77
2018-08-03T22:21:47.725Z,23.67
2018-08-03T22:24:14.928Z,23.75
2018-08-03T22:26:42.080Z,24.03
2018-08-03T22:29:09.373Z,24.09
2018-08-03T22:31:36.518Z,24.30
2018-08-03T22:34:03.647Z,24.27
2018-08-03T22:36:30.794Z,24.35
2018-08-03T22:38:58.956Z,23.97
2018-08-03T22:41:26.139Z,24.06
2018-08-03T22:43:53.264Z,23.96
2018-08-03T22:46:20.555Z,24.15
2018-08-03T22:48:47.943Z,24.05
2018-08-03T22:51:15.285Z,24.07
2018-08-03T22:53:42.418Z,24.01
2018-08-03T22:56:09.623Z,23.89
2018-08-03T22:58:36.811Z,23.97
2018-08-03T23:01:04.022Z,23.86
2018-08-03T23:03:31.101Z,23.70
2018-08-03T23:05:58.322Z,23.59
2018-08-03T23:08:25.479Z,23.17
2018-08-03T23:10:53.202Z,23.23
2018-08-03T23:13:20.990Z,23.39
2018-08-03T23:15:50.799Z,23.24
2018-08-03T23:18:19.629Z,23.64
2018-08-03T23:20:47.235Z,23.76
2018-08-03T23:23:15.102Z,23.25
2018-08-03T23:25:44.883Z,22.90
2018-08-03T23:28:12.460Z,22.77
2018-08-03T23:30:40.367Z,22.80
2018-08-03T23:33:08.164Z,23.23
2018-08-03T23:35:36.910Z,23.40
2018-08-03T23:38:09.758Z,23.42
2018-08-03T23:40:37.664Z,23.55
2018-08-03T23:43:05.392Z,23.25
2018-08-03T23:45:33.869Z,22.99
2018-08-03T23:48:03.470Z,21.81
2018-08-03T23:50:31.541Z,22.56
2018-08-03T23:52:59.187Z,22.32
2018-08-03T23:55:26.878Z,22.41
2018-08-03T23:57:54.540Z,22.76
